createdAt,value
2023-01-10T00:00:05.843Z,996
2023-01-10T00:03:06.016Z,996
2023-01-10T00:06:05.709Z,996
2023-01-10T00:09:05.659Z,996
2023-01-10T00:12:05.711Z,996
2023-01-10T00:15:05.790Z,996
2023-01-10T00:18:05.673Z,996
2023-01-10T00:21:05.802Z,996
2023-01-10T00:24:05.995Z,996
2023-01-10T00:27:05.717Z,996
2023-01-10T00:30:05.820Z,996
2023-01-10T00:33:05.743Z,996
2023-01-10T00:36:05.734Z,996
2023-01-10T00:39:05.767Z,996
2023-01-10T00:42:05.794Z,996
2023-01-10T00:45:05.695Z,996
2023-01-10T00:48:05.723Z,996
2023-01-10T00:51:05.937Z,996
2023-01-10T00:54:05.746Z,996
2023-01-10T00:57:05.768Z,996
2023-01-10T01:00:05.944Z,997
2023-01-10T01:03:05.848Z,997
2023-01-10T01:06:05.650Z,997
2023-01-10T01:09:05.682Z,997
2023-01-10T01:12:05.702Z,997
2023-01-10T01:15:05.680Z,997
2023-01-10T01:18:05.718Z,997
2023-01-10T01:21:05.740Z,997
2023-01-10T01:24:05.667Z,997
2023-01-10T01:27:05.766Z,997
2023-01-10T01:30:05.746Z,997
2023-01-10T01:33:06.231Z,997
2023-01-10T01:36:05.901Z,997
2023-01-10T01:39:05.620Z,997
2023-01-10T01:42:05.697Z,997
2023-01-10T01:45:05.757Z,998
2023-01-10T01:48:05.614Z,998
2023-01-10T01:51:05.827Z,998
2023-01-10T01:54:05.703Z,998
2023-01-10T01:57:05.741Z,998
2023-01-10T02:00:05.715Z,998
2023-01-10T02:03:08.115Z,998
2023-01-10T02:06:05.778Z,998
2023-01-10T02:09:05.674Z,998
2023-01-10T02:12:05.642Z,998
2023-01-10T02:15:05.704Z,998
2023-01-10T02:18:05.691Z,998
2023-01-10T02:21:05.677Z,998
2023-01-10T02:24:05.682Z,998
2023-01-10T02:27:05.682Z,998
2023-01-10T02:30:05.732Z,998
2023-01-10T02:33:10.242Z,998
2023-01-10T02:36:05.693Z,998
2023-01-10T02:39:05.994Z,998
2023-01-10T02:42:05.658Z,998
2023-01-10T02:45:05.721Z,998
2023-01-10T02:48:05.772Z,998
2023-01-10T02:51:05.723Z,998
2023-01-10T02:54:05.705Z,998
2023-01-10T02:57:05.617Z,999
2023-01-10T03:00:05.799Z,999
2023-01-10T03:03:05.674Z,999
2023-01-10T03:06:05.673Z,999
2023-01-10T03:09:05.646Z,999
2023-01-10T03:12:05.862Z,999
2023-01-10T03:15:05.796Z,999
2023-01-10T03:18:05.771Z,999
2023-01-10T03:21:05.685Z,999
2023-01-10T03:24:05.743Z,999
2023-01-10T03:27:05.760Z,999
2023-01-10T03:30:05.758Z,999
2023-01-10T03:33:05.721Z,999
2023-01-10T03:36:05.757Z,999
2023-01-10T03:39:05.695Z,1000
2023-01-10T03:42:05.640Z,1000
2023-01-10T03:45:05.756Z,1000
2023-01-10T03:48:05.737Z,1000
2023-01-10T03:51:05.721Z,1000
2023-01-10T03:54:05.744Z,1000
2023-01-10T03:57:07.455Z,1000
2023-01-10T04:00:05.754Z,1000
2023-01-10T04:03:05.726Z,1000
2023-01-10T04:06:05.717Z,1000
2023-01-10T04:09:05.663Z,1000
2023-01-10T04:12:05.730Z,1000
2023-01-10T04:15:05.701Z,1000
2023-01-10T04:18:05.832Z,1000
2023-01-10T04:21:05.676Z,1000
2023-01-10T04:24:05.743Z,1000
2023-01-10T04:27:05.905Z,1000
2023-01-10T04:30:05.843Z,1000
2023-01-10T04:33:05.671Z,1001
2023-01-10T04:36:05.880Z,1001
2023-01-10T04:39:05.720Z,1001
2023-01-10T04:42:05.658Z,1001
2023-01-10T04:45:05.779Z,1001
2023-01-10T04:48:05.944Z,1001
2023-01-10T04:51:05.782Z,1001
2023-01-10T04:54:05.662Z,1001
2023-01-10T04:57:05.702Z,1001
2023-01-10T05:00:05.721Z,1001
2023-01-10T05:03:06.620Z,1001
2023-01-10T05:06:05.612Z,1001
2023-01-10T05:09:05.700Z,1001
2023-01-10T05:12:05.656Z,1001
2023-01-10T05:15:05.809Z,1001
2023-01-10T05:18:05.668Z,1001
2023-01-10T05:21:05.694Z,1001
2023-01-10T05:24:05.755Z,1001
2023-01-10T05:27:05.695Z,1001
2023-01-10T05:30:05.718Z,1001
2023-01-10T05:33:05.809Z,1001
2023-01-10T05:36:05.698Z,1001
2023-01-10T05:39:05.657Z,1001
2023-01-10T05:42:05.706Z,1002
2023-01-10T05:45:05.752Z,1002
2023-01-10T05:48:05.721Z,1002
2023-01-10T05:51:05.733Z,1002
2023-01-10T05:54:05.757Z,1002
2023-01-10T05:57:05.928Z,1002
2023-01-10T06:00:08.076Z,1002
2023-01-10T06:03:06.049Z,1002
2023-01-10T06:06:05.775Z,1002
2023-01-10T06:09:05.677Z,1002
2023-01-10T06:12:05.794Z,1002
2023-01-10T06:15:05.707Z,1002
2023-01-10T06:18:05.714Z,1002
2023-01-10T06:21:05.738Z,1002
2023-01-10T06:24:05.724Z,1002
2023-01-10T06:27:05.608Z,1002
2023-01-10T06:30:05.835Z,1002
2023-01-10T06:33:05.710Z,1002
2023-01-10T06:36:05.754Z,1002
2023-01-10T06:39:05.630Z,1003
2023-01-10T06:42:05.683Z,1003
2023-01-10T06:45:05.685Z,1003
2023-01-10T06:48:05.771Z,1003
2023-01-10T06:51:05.691Z,1003
2023-01-10T06:54:05.907Z,1003
2023-01-10T06:57:05.691Z,1003
2023-01-10T07:00:05.795Z,1003
2023-01-10T07:03:05.716Z,1003
2023-01-10T07:06:05.686Z,1003
2023-01-10T07:09:05.724Z,1003
2023-01-10T07:12:05.697Z,1003
2023-01-10T07:15:05.768Z,1003
2023-01-10T07:18:05.676Z,1003
2023-01-10T07:21:05.698Z,1003
2023-01-10T07:24:07.566Z,1003
2023-01-10T07:27:05.755Z,1003
2023-01-10T07:30:05.859Z,1003
2023-01-10T07:33:05.797Z,1003
2023-01-10T07:36:05.915Z,1004
2023-01-10T07:39:05.751Z,1004
2023-01-10T07:42:05.883Z,1004
2023-01-10T07:45:05.832Z,1004
2023-01-10T07:48:06.028Z,1004
2023-01-10T07:51:07.563Z,1004
2023-01-10T07:54:05.748Z,1004
2023-01-10T07:57:05.690Z,1004
2023-01-10T08:00:05.903Z,1004
2023-01-10T08:03:06.531Z,1004
2023-01-10T08:06:05.824Z,1004
2023-01-10T08:09:05.904Z,1004
2023-01-10T08:12:05.774Z,1004
2023-01-10T08:15:05.868Z,1004
2023-01-10T08:18:09.234Z,1004
2023-01-10T08:21:05.721Z,1004
2023-01-10T08:24:05.702Z,1004
2023-01-10T08:27:05.758Z,1004
2023-01-10T08:30:05.812Z,1004
2023-01-10T08:33:05.862Z,1004
2023-01-10T08:36:05.778Z,1005
2023-01-10T08:39:05.794Z,1004
2023-01-10T08:42:05.813Z,1004
2023-01-10T08:45:05.751Z,1004
2023-01-10T08:48:05.852Z,1004
2023-01-10T08:51:05.752Z,1004
2023-01-10T08:54:05.813Z,1004
2023-01-10T08:57:06.041Z,1004
2023-01-10T09:00:05.813Z,1004
2023-01-10T09:03:06.097Z,1004
2023-01-10T09:06:05.819Z,1004
2023-01-10T09:09:05.734Z,1004
2023-01-10T09:12:05.984Z,1004
2023-01-10T09:15:05.934Z,1004
2023-01-10T09:18:05.828Z,1004
2023-01-10T09:21:05.957Z,1004
2023-01-10T09:24:05.762Z,1004
2023-01-10T09:27:05.694Z,1005
2023-01-10T09:30:05.812Z,1005
2023-01-10T09:33:05.792Z,1005
2023-01-10T09:36:05.723Z,1005
2023-01-10T09:39:05.750Z,1005
2023-01-10T09:42:05.742Z,1005
2023-01-10T09:45:05.793Z,1005
2023-01-10T09:48:05.947Z,1005
2023-01-10T09:51:05.777Z,1005
2023-01-10T09:54:17.294Z,1005
2023-01-10T09:57:05.824Z,1005
2023-01-10T10:00:05.772Z,1005
2023-01-10T10:03:05.853Z,1005
2023-01-10T10:06:17.066Z,1005
2023-01-10T10:09:09.386Z,1005
2023-01-10T10:12:05.768Z,1005
2023-01-10T10:15:05.845Z,1005
2023-01-10T10:18:05.763Z,1005
2023-01-10T10:21:05.935Z,1005
2023-01-10T10:24:05.816Z,1005
2023-01-10T10:27:05.830Z,1006
2023-01-10T10:30:05.784Z,1006
2023-01-10T10:33:05.669Z,1006
2023-01-10T10:36:05.813Z,1006
2023-01-10T10:39:05.827Z,1006
2023-01-10T10:42:05.816Z,1006
2023-01-10T10:45:05.730Z,1006
2023-01-10T10:48:05.821Z,1006
2023-01-10T10:51:05.791Z,1006
2023-01-10T10:54:05.937Z,1006
2023-01-10T10:57:05.765Z,1006
2023-01-10T11:00:05.930Z,1006
2023-01-10T11:03:05.811Z,1006
2023-01-10T11:06:05.699Z,1006
2023-01-10T11:09:05.770Z,1006
2023-01-10T11:12:05.779Z,1006
2023-01-10T11:15:05.758Z,1006
2023-01-10T11:18:05.822Z,1006
2023-01-10T11:21:05.739Z,1006
2023-01-10T11:24:05.826Z,1005
2023-01-10T11:27:05.899Z,1005
2023-01-10T11:30:05.840Z,1005
2023-01-10T11:33:05.824Z,1005
2023-01-10T11:36:05.829Z,1005
2023-01-10T11:39:05.768Z,1005
2023-01-10T11:42:05.779Z,1005
2023-01-10T11:45:05.723Z,1005
2023-01-10T11:48:05.891Z,1005
2023-01-10T11:51:05.726Z,1005
2023-01-10T11:54:05.845Z,1005
2023-01-10T11:57:05.766Z,1005
2023-01-10T12:00:06.101Z,1005
2023-01-10T12:03:05.920Z,1005
2023-01-10T12:06:05.785Z,1005
2023-01-10T12:09:05.812Z,1005
2023-01-10T12:12:05.801Z,1005
2023-01-10T12:15:05.722Z,1006
2023-01-10T12:18:05.991Z,1006
2023-01-10T12:21:05.781Z,1006
2023-01-10T12:24:05.735Z,1006
2023-01-10T12:27:05.799Z,1006
2023-01-10T12:30:05.881Z,1006
2023-01-10T12:33:05.978Z,1006
2023-01-10T12:36:05.819Z,1006
2023-01-10T12:39:05.784Z,1006
2023-01-10T12:42:05.888Z,1006
2023-01-10T12:45:05.755Z,1006
2023-01-10T12:48:05.799Z,1006
2023-01-10T12:51:05.812Z,1006
2023-01-10T12:54:06.069Z,1006
2023-01-10T12:57:05.757Z,1006
2023-01-10T13:00:05.932Z,1006
2023-01-10T13:03:06.056Z,1006
2023-01-10T13:06:05.870Z,1006
2023-01-10T13:09:05.714Z,1006
2023-01-10T13:12:05.814Z,1006
2023-01-10T13:15:05.847Z,1006
2023-01-10T13:18:05.777Z,1005
2023-01-10T13:21:05.727Z,1005
2023-01-10T13:24:05.775Z,1005
2023-01-10T13:27:05.738Z,1005
2023-01-10T13:30:06.003Z,1005
2023-01-10T13:33:05.886Z,1005
2023-01-10T13:36:05.828Z,1005
2023-01-10T13:39:05.772Z,1005
2023-01-10T13:42:05.879Z,1005
2023-01-10T13:45:05.896Z,1005
2023-01-10T13:48:05.837Z,1005
2023-01-10T13:51:05.681Z,1005
2023-01-10T13:54:05.837Z,1005
2023-01-10T13:57:05.889Z,1005
2023-01-10T14:00:05.981Z,1005
2023-01-10T14:03:05.692Z,1005
2023-01-10T14:06:05.773Z,1005
2023-01-10T14:09:05.772Z,1005
2023-01-10T14:12:05.802Z,1006
2023-01-10T14:15:05.792Z,1006
2023-01-10T14:18:05.806Z,1006
2023-01-10T14:21:05.794Z,1006
2023-01-10T14:24:05.773Z,1006
2023-01-10T14:27:05.755Z,1006
2023-01-10T14:30:06.163Z,1006
2023-01-10T14:33:05.764Z,1006
2023-01-10T14:36:06.195Z,1006
2023-01-10T14:39:05.772Z,1006
2023-01-10T14:42:05.809Z,1006
2023-01-10T14:45:05.871Z,1006
2023-01-10T14:48:05.823Z,1006
2023-01-10T14:51:05.776Z,1005
2023-01-10T14:54:05.869Z,1005
2023-01-10T14:57:05.770Z,1005
2023-01-10T15:00:06.037Z,1005
2023-01-10T15:03:05.647Z,1005
2023-01-10T15:06:05.805Z,1006
2023-01-10T15:09:06.012Z,1006
2023-01-10T15:12:06.179Z,1006
2023-01-10T15:15:05.925Z,1006
2023-01-10T15:18:05.917Z,1006
2023-01-10T15:21:05.790Z,1006
2023-01-10T15:24:05.790Z,1006
2023-01-10T15:27:05.904Z,1006
2023-01-10T15:30:05.961Z,1006
2023-01-10T15:33:05.667Z,1005
2023-01-10T15:36:05.678Z,1005
2023-01-10T15:39:05.854Z,1005
2023-01-10T15:42:05.700Z,1005
2023-01-10T15:45:05.755Z,1005
2023-01-10T15:48:05.851Z,1005
2023-01-10T15:51:05.948Z,1005
2023-01-10T15:54:06.022Z,1005
2023-01-10T15:57:05.728Z,1005
2023-01-10T16:00:06.134Z,1005
2023-01-10T16:03:06.181Z,1005
2023-01-10T16:06:05.950Z,1005
2023-01-10T16:09:05.650Z,1005
2023-01-10T16:12:05.762Z,1005
2023-01-10T16:15:05.764Z,1005
2023-01-10T16:18:05.765Z,1005
2023-01-10T16:21:05.699Z,1005
2023-01-10T16:24:05.719Z,1005
2023-01-10T16:27:05.730Z,1005
2023-01-10T16:30:06.089Z,1005
2023-01-10T16:33:05.737Z,1005
2023-01-10T16:36:05.699Z,1005
2023-01-10T16:39:05.660Z,1005
2023-01-10T16:42:05.740Z,1005
2023-01-10T16:45:05.969Z,1005
2023-01-10T16:48:05.709Z,1005
2023-01-10T16:51:05.748Z,1005
2023-01-10T16:54:05.757Z,1005
2023-01-10T16:57:05.833Z,1005
2023-01-10T17:00:05.695Z,1004
2023-01-10T17:03:05.675Z,1004
2023-01-10T17:06:05.712Z,1004
2023-01-10T17:09:05.632Z,1004
2023-01-10T17:12:05.639Z,1004
2023-01-10T17:15:05.749Z,1004
2023-01-10T17:18:05.721Z,1004
2023-01-10T17:21:05.702Z,1004
2023-01-10T17:24:05.719Z,1004
2023-01-10T17:27:05.669Z,1004
2023-01-10T17:30:05.818Z,1004
2023-01-10T17:33:05.682Z,1004
2023-01-10T17:36:05.671Z,1004
2023-01-10T17:39:05.668Z,1004
2023-01-10T17:42:05.631Z,1004
2023-01-10T17:45:05.986Z,1004
2023-01-10T17:48:05.633Z,1004
2023-01-10T17:51:05.768Z,1004
2023-01-10T17:54:05.843Z,1004
2023-01-10T17:57:05.656Z,1004
2023-01-10T18:00:05.827Z,1004
2023-01-10T18:03:06.024Z,1004
2023-01-10T18:06:15.741Z,1004
2023-01-10T18:09:05.630Z,1004
2023-01-10T18:12:05.701Z,1004
2023-01-10T18:15:05.719Z,1004
2023-01-10T18:18:05.716Z,1004
2023-01-10T18:21:05.748Z,1004
2023-01-10T18:24:05.762Z,1004
2023-01-10T18:27:05.658Z,1004
2023-01-10T18:30:05.729Z,1004
2023-01-10T18:33:05.662Z,1004
2023-01-10T18:36:05.744Z,1003
2023-01-10T18:39:05.677Z,1003
2023-01-10T18:42:05.711Z,1003
2023-01-10T18:45:05.896Z,1003
2023-01-10T18:48:05.704Z,1004
2023-01-10T18:51:05.721Z,1004
2023-01-10T18:54:05.902Z,1004
2023-01-10T18:57:05.759Z,1004
2023-01-10T19:00:05.799Z,1004
2023-01-10T19:03:05.688Z,1004
2023-01-10T19:06:05.915Z,1004
2023-01-10T19:09:06.001Z,1004
2023-01-10T19:12:05.753Z,1003
2023-01-10T19:15:05.917Z,1003
2023-01-10T19:18:05.718Z,1003
2023-01-10T19:21:05.758Z,1003
2023-01-10T19:24:06.181Z,1003
2023-01-10T19:27:05.694Z,1003
2023-01-10T19:30:05.783Z,1003
2023-01-10T19:33:05.704Z,1003
2023-01-10T19:36:05.691Z,1003
2023-01-10T19:39:05.818Z,1003
2023-01-10T19:42:05.820Z,1003
2023-01-10T19:45:05.705Z,1003
2023-01-10T19:48:05.685Z,1003
2023-01-10T19:51:05.695Z,1003
2023-01-10T19:54:05.692Z,1003
2023-01-10T19:57:05.731Z,1003
2023-01-10T20:00:05.863Z,1003
2023-01-10T20:03:06.088Z,1003
2023-01-10T20:06:05.682Z,1003
2023-01-10T20:09:05.916Z,1002
2023-01-10T20:12:05.709Z,1002
2023-01-10T20:15:05.836Z,1002
2023-01-10T20:18:05.782Z,1002
2023-01-10T20:21:05.679Z,1002
2023-01-10T20:24:05.669Z,1002
2023-01-10T20:27:05.625Z,1002
2023-01-10T20:30:05.670Z,1002
2023-01-10T20:33:05.696Z,1002
2023-01-10T20:36:05.647Z,1002
2023-01-10T20:39:05.695Z,1002
2023-01-10T20:42:05.738Z,1003
2023-01-10T20:45:05.736Z,1003
2023-01-10T20:48:05.793Z,1003
2023-01-10T20:51:05.655Z,1002
2023-01-10T20:54:05.810Z,1002
2023-01-10T20:57:05.751Z,1002
2023-01-10T21:00:05.992Z,1002
2023-01-10T21:03:06.068Z,1002
2023-01-10T21:06:05.676Z,1002
2023-01-10T21:09:05.914Z,1002
2023-01-10T21:12:29.784Z,1002
2023-01-10T21:15:05.750Z,1002
2023-01-10T21:18:05.649Z,1002
2023-01-10T21:21:05.788Z,1002
2023-01-10T21:24:05.641Z,1001
2023-01-10T21:27:05.822Z,1001
2023-01-10T21:30:05.697Z,1001
2023-01-10T21:33:05.699Z,1001
2023-01-10T21:36:05.693Z,1001
2023-01-10T21:39:05.708Z,1001
2023-01-10T21:42:05.706Z,1001
2023-01-10T21:45:05.838Z,1001
2023-01-10T21:48:05.796Z,1001
2023-01-10T21:51:05.718Z,1001
2023-01-10T21:54:05.824Z,1001
2023-01-10T21:57:05.636Z,1001
2023-01-10T22:00:05.718Z,1001
2023-01-10T22:03:05.671Z,1001
2023-01-10T22:06:05.763Z,1000
2023-01-10T22:09:05.688Z,1000
2023-01-10T22:12:05.659Z,1000
2023-01-10T22:15:05.730Z,1000
2023-01-10T22:18:05.682Z,1000
2023-01-10T22:21:05.874Z,1000
2023-01-10T22:24:05.762Z,1000
2023-01-10T22:27:05.755Z,1000
2023-01-10T22:30:05.691Z,1000
2023-01-10T22:33:05.681Z,1000
2023-01-10T22:36:05.880Z,1000
2023-01-10T22:39:05.718Z,1000
2023-01-10T22:42:05.677Z,1000
2023-01-10T22:45:05.768Z,1000
2023-01-10T22:48:05.795Z,1000
2023-01-10T22:51:05.784Z,1000
2023-01-10T22:54:05.736Z,1000
2023-01-10T22:57:05.655Z,999
2023-01-10T23:00:06.495Z,999
2023-01-10T23:03:05.430Z,999
2023-01-10T23:06:05.479Z,999
2023-01-10T23:09:05.452Z,999
2023-01-10T23:12:05.564Z,999
2023-01-10T23:15:05.403Z,999
2023-01-10T23:18:05.440Z,999
2023-01-10T23:21:05.476Z,999
2023-01-10T23:24:05.652Z,999
2023-01-10T23:27:05.503Z,999
2023-01-10T23:30:05.475Z,999
2023-01-10T23:33:05.610Z,999
2023-01-10T23:36:05.467Z,999
2023-01-10T23:39:05.524Z,999
2023-01-10T23:42:05.562Z,999
2023-01-10T23:45:05.464Z,999
2023-01-10T23:48:05.656Z,999
2023-01-10T23:51:05.434Z,999
2023-01-10T23:54:05.438Z,999
2023-01-10T23:57:05.470Z,999
